createdAt,value
2018-05-09T00:08:15.014Z,9.55
2018-05-09T00:19:07.439Z,9.35
2018-05-09T00:29:59.761Z,9.35
2018-05-09T00:40:55.262Z,9.16
2018-05-09T00:51:49.410Z,9.26
2018-05-09T01:02:32.330Z,9.35
2018-05-09T01:13:21.869Z,9.55
2018-05-09T01:24:12.223Z,9.35
2018-05-09T01:34:57.170Z,9.65
2018-05-09T01:45:50.916Z,9.55
2018-05-09T01:56:50.555Z,9.65
2018-05-09T02:07:39.499Z,9.55
2018-05-09T02:18:35.643Z,9.35
2018-05-09T02:29:27.580Z,9.16
2018-05-09T02:40:21.017Z,8.86
2018-05-09T02:51:15.207Z,8.67
2018-05-09T03:02:02.583Z,8.47
2018-05-09T03:12:49.902Z,8.57
2018-05-09T03:23:37.012Z,8.47
2018-05-09T03:34:30.177Z,8.37
2018-05-09T03:45:24.869Z,8.67
2018-05-09T03:56:26.584Z,8.47
2018-05-09T04:07:27.204Z,8.47
2018-05-09T04:18:29.281Z,8.67
2018-05-09T04:29:30.390Z,8.67
2018-05-09T04:40:32.480Z,8.96
2018-05-09T04:51:35.688Z,9.35
2018-05-09T05:02:38.251Z,9.74
2018-05-09T05:13:39.966Z,9.94
2018-05-09T05:24:43.204Z,10.43
2018-05-09T05:35:44.075Z,10.72
2018-05-09T05:46:46.719Z,11.11
2018-05-09T05:57:49.217Z,11.80
2018-05-09T06:08:51.789Z,12.09
2018-05-09T06:19:53.608Z,12.38
2018-05-09T06:30:56.248Z,13.17
2018-05-09T06:41:59.741Z,13.56
2018-05-09T06:53:02.548Z,14.05
2018-05-09T07:04:03.276Z,14.63
2018-05-09T07:15:05.112Z,15.22
2018-05-09T07:26:07.043Z,15.61
2018-05-09T07:37:10.265Z,16.10
2018-05-09T07:48:13.278Z,16.49
2018-05-09T07:59:15.025Z,16.69
2018-05-09T08:10:17.017Z,17.18
2018-05-09T08:21:19.780Z,17.37
2018-05-09T08:32:22.300Z,17.47
2018-05-09T08:43:24.126Z,17.86
2018-05-09T08:54:07.616Z,18.15
2018-05-09T09:04:49.089Z,18.64
2018-05-09T09:15:32.891Z,18.94
2018-05-09T09:26:14.880Z,19.13
2018-05-09T09:36:56.313Z,19.72
2018-05-09T09:47:39.985Z,19.91
2018-05-09T09:58:23.633Z,20.31
2018-05-09T10:09:06.378Z,20.80
2018-05-09T10:19:44.643Z,20.79
2018-05-09T10:30:28.112Z,21.09
2018-05-09T10:41:11.892Z,21.19
2018-05-09T10:51:55.616Z,21.38
2018-05-09T11:02:38.305Z,22.07
2018-05-09T11:13:21.751Z,22.07
2018-05-09T11:24:06.539Z,22.56
2018-05-09T11:34:47.657Z,24.80
2018-05-09T11:45:30.525Z,25.78
2018-05-09T11:56:13.775Z,26.17
2018-05-09T12:06:55.745Z,25.68
2018-05-09T12:17:37.642Z,23.83
2018-05-09T12:28:20.747Z,23.24
2018-05-09T12:39:05.147Z,24.02
2018-05-09T12:49:47.046Z,24.71
2018-05-09T13:00:30.593Z,25.49
2018-05-09T13:11:08.947Z,27.25
2018-05-09T13:21:52.402Z,27.64
2018-05-09T13:32:38.646Z,29.79
2018-05-09T13:43:28.053Z,30.09
2018-05-09T13:54:11.339Z,26.76
2018-05-09T14:04:52.387Z,26.27
2018-05-09T14:15:39.623Z,28.13
2018-05-09T14:26:25.357Z,28.81
2018-05-09T14:36:59.997Z,26.56
2018-05-09T14:47:44.584Z,25.00
2018-05-09T14:58:27.571Z,28.62
2018-05-09T15:09:26.469Z,28.81
2018-05-09T15:20:04.302Z,25.68
2018-05-09T15:30:42.690Z,23.44
2018-05-09T15:41:24.430Z,25.29
2018-05-09T15:52:07.184Z,22.95
2018-05-09T16:02:47.504Z,22.85
2018-05-09T16:13:33.742Z,22.46
2018-05-09T16:24:14.761Z,22.07
2018-05-09T16:35:04.556Z,21.68
2018-05-09T16:45:45.679Z,21.28
2018-05-09T16:56:23.350Z,21.19
2018-05-09T17:07:01.279Z,20.99
2018-05-09T17:17:48.481Z,20.80
2018-05-09T17:28:31.021Z,20.50
2018-05-09T17:39:31.019Z,19.72
2018-05-09T17:50:32.166Z,18.94
2018-05-09T18:01:30.448Z,18.15
2018-05-09T18:12:30.354Z,17.57
2018-05-09T18:23:29.977Z,17.18
2018-05-09T18:34:30.477Z,16.49
2018-05-09T18:45:31.453Z,15.90
2018-05-09T18:56:26.731Z,15.71
2018-05-09T19:07:18.946Z,15.32
2018-05-09T19:18:18.386Z,14.93
2018-05-09T19:29:16.318Z,14.63
2018-05-09T19:40:17.229Z,14.54
2018-05-09T19:51:16.568Z,14.14
2018-05-09T20:02:12.644Z,14.05
2018-05-09T20:13:08.537Z,13.56
2018-05-09T20:24:03.919Z,13.56
2018-05-09T20:35:02.354Z,13.36
2018-05-09T20:45:59.921Z,13.17
2018-05-09T20:57:00.487Z,12.97
2018-05-09T21:08:00.104Z,12.87
2018-05-09T21:19:00.696Z,12.68
2018-05-09T21:30:00.030Z,12.58
2018-05-09T21:40:57.837Z,12.19
2018-05-09T21:51:59.211Z,12.19
2018-05-09T22:02:59.947Z,12.19
2018-05-09T22:13:59.426Z,11.70
2018-05-09T22:24:59.132Z,11.80
2018-05-09T22:36:00.979Z,11.70
2018-05-09T22:47:02.072Z,11.50
2018-05-09T22:58:02.758Z,11.60
2018-05-09T23:09:03.768Z,11.21
2018-05-09T23:20:03.546Z,11.02
2018-05-09T23:31:04.166Z,10.82
2018-05-09T23:42:04.716Z,10.82
2018-05-09T23:53:06.953Z,10.72
